sensor_id;sensor_type;location;lat;lon;timestamp;pressure;altitude;pressure_sealevel;temperature;humidity
76464;BME280;65301;46.666;20.110;2024-02-16T00:01:21;101679.22;;;4.11;92.38
76464;BME280;65301;46.666;20.110;2024-02-16T00:04:23;101675.94;;;4.03;93.73
76464;BME280;65301;46.666;20.110;2024-02-16T00:07:25;101676.59;;;4.11;92.95
76464;BME280;65301;46.666;20.110;2024-02-16T00:10:28;101675.19;;;4.20;91.19
76464;BME280;65301;46.666;20.110;2024-02-16T00:13:30;101675.41;;;4.01;92.43
76464;BME280;65301;46.666;20.110;2024-02-16T00:16:32;101680.78;;;3.83;93.38
76464;BME280;65301;46.666;20.110;2024-02-16T00:19:34;101677.63;;;3.81;93.78
76464;BME280;65301;46.666;20.110;2024-02-16T00:22:36;101672.06;;;3.78;94.55
76464;BME280;65301;46.666;20.110;2024-02-16T00:25:37;101674.78;;;3.83;94.26
76464;BME280;65301;46.666;20.110;2024-02-16T00:28:41;101680.53;;;3.96;91.88
76464;BME280;65301;46.666;20.110;2024-02-16T00:31:43;101674.75;;;3.94;91.45
76464;BME280;65301;46.666;20.110;2024-02-16T00:34:45;101669.66;;;3.88;93.10
76464;BME280;65301;46.666;20.110;2024-02-16T00:37:47;101667.16;;;3.81;94.23
76464;BME280;65301;46.666;20.110;2024-02-16T00:40:49;101670.81;;;3.80;94.93
76464;BME280;65301;46.666;20.110;2024-02-16T00:43:51;101659.81;;;3.78;94.18
76464;BME280;65301;46.666;20.110;2024-02-16T00:46:56;101657.41;;;3.77;94.54
76464;BME280;65301;46.666;20.110;2024-02-16T00:49:58;101663.28;;;3.84;94.63
76464;BME280;65301;46.666;20.110;2024-02-16T00:53:00;101656.50;;;3.71;95.76
76464;BME280;65301;46.666;20.110;2024-02-16T00:56:02;101663.78;;;3.81;94.57
76464;BME280;65301;46.666;20.110;2024-02-16T00:59:04;101659.38;;;3.70;94.94
76464;BME280;65301;46.666;20.110;2024-02-16T01:02:06;101667.66;;;3.78;94.44
76464;BME280;65301;46.666;20.110;2024-02-16T01:05:08;101654.25;;;3.75;93.77
76464;BME280;65301;46.666;20.110;2024-02-16T01:08:12;101656.03;;;3.46;96.38
76464;BME280;65301;46.666;20.110;2024-02-16T01:11:14;101652.69;;;3.62;93.91
76464;BME280;65301;46.666;20.110;2024-02-16T01:14:15;101650.56;;;3.48;95.31
76464;BME280;65301;46.666;20.110;2024-02-16T01:17:17;101644.34;;;3.37;96.32
76464;BME280;65301;46.666;20.110;2024-02-16T01:20:19;101647.59;;;3.56;95.88
76464;BME280;65301;46.666;20.110;2024-02-16T01:23:21;101640.59;;;3.45;97.02
76464;BME280;65301;46.666;20.110;2024-02-16T01:26:23;101636.66;;;3.70;94.52
76464;BME280;65301;46.666;20.110;2024-02-16T01:29:25;101637.41;;;3.82;93.90
76464;BME280;65301;46.666;20.110;2024-02-16T01:32:27;101632.94;;;3.94;92.58
76464;BME280;65301;46.666;20.110;2024-02-16T01:35:29;101639.47;;;3.80;93.02
76464;BME280;65301;46.666;20.110;2024-02-16T01:38:30;101632.19;;;3.82;93.21
76464;BME280;65301;46.666;20.110;2024-02-16T01:41:33;101627.50;;;3.84;92.85
76464;BME280;65301;46.666;20.110;2024-02-16T01:44:35;101630.72;;;4.03;91.43
76464;BME280;65301;46.666;20.110;2024-02-16T01:47:38;101628.91;;;4.03;90.97
76464;BME280;65301;46.666;20.110;2024-02-16T01:50:43;101629.22;;;3.79;92.02
76464;BME280;65301;46.666;20.110;2024-02-16T01:53:45;101630.91;;;3.57;93.51
76464;BME280;65301;46.666;20.110;2024-02-16T01:56:47;101626.94;;;3.43;94.51
76464;BME280;65301;46.666;20.110;2024-02-16T01:59:50;101631.28;;;3.25;95.67
76464;BME280;65301;46.666;20.110;2024-02-16T02:02:52;101633.06;;;3.48;94.80
76464;BME280;65301;46.666;20.110;2024-02-16T02:05:54;101631.88;;;3.67;93.73
76464;BME280;65301;46.666;20.110;2024-02-16T02:08:57;101632.78;;;3.73;92.28
76464;BME280;65301;46.666;20.110;2024-02-16T02:11:59;101631.66;;;3.69;91.58
76464;BME280;65301;46.666;20.110;2024-02-16T02:15:01;101633.66;;;3.38;93.75
76464;BME280;65301;46.666;20.110;2024-02-16T02:18:04;101624.16;;;3.21;94.92
76464;BME280;65301;46.666;20.110;2024-02-16T02:21:06;101630.28;;;3.26;94.83
76464;BME280;65301;46.666;20.110;2024-02-16T02:24:08;101623.06;;;3.05;95.86
76464;BME280;65301;46.666;20.110;2024-02-16T02:27:12;101625.31;;;3.02;96.21
76464;BME280;65301;46.666;20.110;2024-02-16T02:30:14;101627.44;;;3.16;94.75
76464;BME280;65301;46.666;20.110;2024-02-16T02:33:18;101630.78;;;3.00;96.11
76464;BME280;65301;46.666;20.110;2024-02-16T02:36:22;101634.50;;;3.04;96.10
76464;BME280;65301;46.666;20.110;2024-02-16T02:39:24;101636.19;;;3.22;95.19
76464;BME280;65301;46.666;20.110;2024-02-16T02:42:25;101638.25;;;3.08;96.00
76464;BME280;65301;46.666;20.110;2024-02-16T02:45:27;101635.84;;;3.18;95.50
76464;BME280;65301;46.666;20.110;2024-02-16T02:48:29;101637.09;;;3.27;93.82
76464;BME280;65301;46.666;20.110;2024-02-16T02:51:31;101640.53;;;3.05;94.47
76464;BME280;65301;46.666;20.110;2024-02-16T02:54:33;101638.25;;;2.97;94.94
76464;BME280;65301;46.666;20.110;2024-02-16T02:57:35;101639.97;;;2.91;95.52
76464;BME280;65301;46.666;20.110;2024-02-16T03:00:37;101639.63;;;3.11;93.64
76464;BME280;65301;46.666;20.110;2024-02-16T03:03:39;101635.31;;;2.93;93.95
76464;BME280;65301;46.666;20.110;2024-02-16T03:06:41;101634.38;;;2.99;92.78
76464;BME280;65301;46.666;20.110;2024-02-16T03:09:43;101631.56;;;2.89;93.61
76464;BME280;65301;46.666;20.110;2024-02-16T03:12:45;101636.56;;;2.67;95.52
76464;BME280;65301;46.666;20.110;2024-02-16T03:15:46;101638.00;;;2.75;96.13
76464;BME280;65301;46.666;20.110;2024-02-16T03:18:48;101637.38;;;2.80;94.48
76464;BME280;65301;46.666;20.110;2024-02-16T03:21:51;101635.06;;;2.60;95.97
76464;BME280;65301;46.666;20.110;2024-02-16T03:24:53;101636.94;;;2.41;96.66
76464;BME280;65301;46.666;20.110;2024-02-16T03:27:55;101640.63;;;2.63;96.08
76464;BME280;65301;46.666;20.110;2024-02-16T03:30:57;101646.31;;;2.72;96.09
76464;BME280;65301;46.666;20.110;2024-02-16T03:33:59;101649.66;;;2.49;97.55
76464;BME280;65301;46.666;20.110;2024-02-16T03:37:01;101643.44;;;2.50;96.32
76464;BME280;65301;46.666;20.110;2024-02-16T03:40:05;101648.53;;;2.34;96.68
76464;BME280;65301;46.666;20.110;2024-02-16T03:43:07;101648.72;;;2.32;97.45
76464;BME280;65301;46.666;20.110;2024-02-16T03:46:09;101648.19;;;2.42;96.42
76464;BME280;65301;46.666;20.110;2024-02-16T03:49:11;101645.69;;;2.47;96.68
76464;BME280;65301;46.666;20.110;2024-02-16T03:52:13;101647.97;;;2.43;97.04
76464;BME280;65301;46.666;20.110;2024-02-16T03:55:15;101650.63;;;2.25;97.85
76464;BME280;65301;46.666;20.110;2024-02-16T03:58:17;101648.56;;;2.57;95.67
76464;BME280;65301;46.666;20.110;2024-02-16T04:01:19;101655.47;;;2.63;94.19
76464;BME280;65301;46.666;20.110;2024-02-16T04:04:21;101652.16;;;2.56;94.35
76464;BME280;65301;46.666;20.110;2024-02-16T04:07:22;101654.91;;;2.61;94.66
76464;BME280;65301;46.666;20.110;2024-02-16T04:10:25;101656.81;;;2.65;93.77
76464;BME280;65301;46.666;20.110;2024-02-16T04:13:27;101666.38;;;2.72;94.14
76464;BME280;65301;46.666;20.110;2024-02-16T04:16:29;101658.31;;;2.73;94.82
76464;BME280;65301;46.666;20.110;2024-02-16T04:19:30;101666.94;;;2.74;95.32
76464;BME280;65301;46.666;20.110;2024-02-16T04:22:32;101664.31;;;2.62;95.09
76464;BME280;65301;46.666;20.110;2024-02-16T04:25:39;101666.91;;;2.50;95.67
76464;BME280;65301;46.666;20.110;2024-02-16T04:28:41;101661.44;;;2.40;96.03
76464;BME280;65301;46.666;20.110;2024-02-16T04:31:42;101663.63;;;2.14;98.61
76464;BME280;65301;46.666;20.110;2024-02-16T04:34:46;101652.00;;;2.28;97.95
76464;BME280;65301;46.666;20.110;2024-02-16T04:37:49;101661.81;;;2.55;96.45
76464;BME280;65301;46.666;20.110;2024-02-16T04:40:51;101665.25;;;2.67;96.34
76464;BME280;65301;46.666;20.110;2024-02-16T04:43:52;101664.56;;;2.72;96.54
76464;BME280;65301;46.666;20.110;2024-02-16T04:46:55;101660.47;;;2.64;98.00
76464;BME280;65301;46.666;20.110;2024-02-16T04:49:56;101664.50;;;2.49;97.75
76464;BME280;65301;46.666;20.110;2024-02-16T04:52:59;101660.25;;;2.25;99.34
76464;BME280;65301;46.666;20.110;2024-02-16T04:56:03;101662.44;;;2.28;97.95
76464;BME280;65301;46.666;20.110;2024-02-16T04:59:06;101672.28;;;2.26;98.81
76464;BME280;65301;46.666;20.110;2024-02-16T05:02:08;101676.06;;;2.41;97.33
76464;BME280;65301;46.666;20.110;2024-02-16T05:05:10;101672.81;;;2.46;95.29
76464;BME280;65301;46.666;20.110;2024-02-16T05:08:11;101680.13;;;2.37;96.12
76464;BME280;65301;46.666;20.110;2024-02-16T05:11:13;101681.25;;;2.30;97.36
76464;BME280;65301;46.666;20.110;2024-02-16T05:14:15;101679.88;;;2.27;95.72
76464;BME280;65301;46.666;20.110;2024-02-16T05:17:18;101682.94;;;2.24;95.97
76464;BME280;65301;46.666;20.110;2024-02-16T05:20:20;101678.31;;;2.26;96.76
76464;BME280;65301;46.666;20.110;2024-02-16T05:23:22;101671.63;;;2.30;98.23
76464;BME280;65301;46.666;20.110;2024-02-16T05:26:24;101671.50;;;2.37;96.43
76464;BME280;65301;46.666;20.110;2024-02-16T05:29:26;101672.88;;;2.39;96.23
76464;BME280;65301;46.666;20.110;2024-02-16T05:32:28;101670.41;;;2.44;96.05
76464;BME280;65301;46.666;20.110;2024-02-16T05:35:30;101670.28;;;2.39;96.83
76464;BME280;65301;46.666;20.110;2024-02-16T05:38:35;101674.81;;;2.44;96.63
76464;BME280;65301;46.666;20.110;2024-02-16T05:41:42;101665.09;;;2.51;96.02
76464;BME280;65301;46.666;20.110;2024-02-16T05:44:44;101669.28;;;2.40;95.81
76464;BME280;65301;46.666;20.110;2024-02-16T05:47:46;101668.91;;;2.37;96.89
76464;BME280;65301;46.666;20.110;2024-02-16T05:50:49;101667.91;;;2.38;97.29
76464;BME280;65301;46.666;20.110;2024-02-16T05:53:53;101672.69;;;2.41;97.41
76464;BME280;65301;46.666;20.110;2024-02-16T05:56:56;101678.03;;;2.46;97.21
76464;BME280;65301;46.666;20.110;2024-02-16T05:59:57;101674.50;;;2.52;96.47
76464;BME280;65301;46.666;20.110;2024-02-16T06:03:02;101678.25;;;2.56;96.24
76464;BME280;65301;46.666;20.110;2024-02-16T06:06:04;101678.84;;;2.69;95.83
76464;BME280;65301;46.666;20.110;2024-02-16T06:09:06;101680.22;;;2.84;94.89
76464;BME280;65301;46.666;20.110;2024-02-16T06:12:09;101683.63;;;2.96;94.69
76464;BME280;65301;46.666;20.110;2024-02-16T06:15:11;101688.97;;;3.12;94.23
76464;BME280;65301;46.666;20.110;2024-02-16T06:18:13;101689.06;;;3.41;92.64
76464;BME280;65301;46.666;20.110;2024-02-16T06:21:15;101692.13;;;3.49;91.91
76464;BME280;65301;46.666;20.110;2024-02-16T06:24:18;101707.44;;;3.69;90.83
76464;BME280;65301;46.666;20.110;2024-02-16T06:27:21;101697.75;;;3.81;89.91
76464;BME280;65301;46.666;20.110;2024-02-16T06:30:27;101701.78;;;3.88;89.45
76464;BME280;65301;46.666;20.110;2024-02-16T06:33:29;101708.38;;;3.91;89.09
76464;BME280;65301;46.666;20.110;2024-02-16T06:36:31;101704.81;;;4.09;88.74
76464;BME280;65301;46.666;20.110;2024-02-16T06:39:33;101710.16;;;4.30;87.13
76464;BME280;65301;46.666;20.110;2024-02-16T06:42:36;101704.78;;;4.37;86.69
76464;BME280;65301;46.666;20.110;2024-02-16T06:45:38;101706.22;;;4.44;85.95
76464;BME280;65301;46.666;20.110;2024-02-16T06:48:40;101710.13;;;4.75;84.56
76464;BME280;65301;46.666;20.110;2024-02-16T06:51:42;101711.19;;;5.07;83.79
76464;BME280;65301;46.666;20.110;2024-02-16T06:54:47;101698.72;;;5.14;83.34
76464;BME280;65301;46.666;20.110;2024-02-16T06:57:48;101713.81;;;5.46;81.14
76464;BME280;65301;46.666;20.110;2024-02-16T07:00:51;101717.16;;;5.41;80.50
76464;BME280;65301;46.666;20.110;2024-02-16T07:03:53;101720.88;;;5.45;80.66
76464;BME280;65301;46.666;20.110;2024-02-16T07:06:55;101725.03;;;5.41;81.79
76464;BME280;65301;46.666;20.110;2024-02-16T07:09:57;101721.41;;;5.25;82.97
76464;BME280;65301;46.666;20.110;2024-02-16T07:13:00;101721.09;;;5.22;82.29
76464;BME280;65301;46.666;20.110;2024-02-16T07:16:02;101727.75;;;5.29;82.74
76464;BME280;65301;46.666;20.110;2024-02-16T07:32:22;101731.00;;;5.96;80.81
76464;BME280;65301;46.666;20.110;2024-02-16T07:35:24;101721.28;;;6.19;79.66
76464;BME280;65301;46.666;20.110;2024-02-16T07:38:26;101730.41;;;6.38;78.50
76464;BME280;65301;46.666;20.110;2024-02-16T07:41:30;101725.47;;;6.73;77.23
76464;BME280;65301;46.666;20.110;2024-02-16T07:44:32;101732.25;;;7.01;76.99
76464;BME280;65301;46.666;20.110;2024-02-16T07:47:34;101730.84;;;7.25;76.86
76464;BME280;65301;46.666;20.110;2024-02-16T07:50:36;101733.22;;;7.73;72.48
76464;BME280;65301;46.666;20.110;2024-02-16T07:53:37;101735.53;;;8.32;69.08
76464;BME280;65301;46.666;20.110;2024-02-16T07:56:42;101740.84;;;8.72;67.51
76464;BME280;65301;46.666;20.110;2024-02-16T07:59:44;101737.94;;;9.14;65.98
76464;BME280;65301;46.666;20.110;2024-02-16T08:02:46;101734.94;;;9.61;64.21
76464;BME280;65301;46.666;20.110;2024-02-16T08:05:48;101737.53;;;9.76;63.75
76464;BME280;65301;46.666;20.110;2024-02-16T08:08:51;101737.75;;;9.84;63.37
76464;BME280;65301;46.666;20.110;2024-02-16T08:11:53;101745.28;;;10.11;63.07
76464;BME280;65301;46.666;20.110;2024-02-16T08:14:55;101741.44;;;10.42;63.57
76464;BME280;65301;46.666;20.110;2024-02-16T08:18:01;101740.31;;;10.87;59.39
76464;BME280;65301;46.666;20.110;2024-02-16T08:21:03;101743.66;;;11.50;57.78
76464;BME280;65301;46.666;20.110;2024-02-16T08:24:06;101737.38;;;12.31;56.26
76464;BME280;65301;46.666;20.110;2024-02-16T08:27:08;101746.78;;;12.74;53.92
76464;BME280;65301;46.666;20.110;2024-02-16T08:30:10;101740.41;;;13.07;54.18
76464;BME280;65301;46.666;20.110;2024-02-16T08:33:13;101743.63;;;13.36;51.23
76464;BME280;65301;46.666;20.110;2024-02-16T08:36:15;101746.56;;;13.49;51.23
76464;BME280;65301;46.666;20.110;2024-02-16T08:39:19;101740.56;;;13.70;50.09
76464;BME280;65301;46.666;20.110;2024-02-16T08:42:26;101737.31;;;13.60;50.04
76464;BME280;65301;46.666;20.110;2024-02-16T08:45:28;101736.47;;;13.05;50.57
76464;BME280;65301;46.666;20.110;2024-02-16T08:48:30;101736.81;;;12.85;52.34
76464;BME280;65301;46.666;20.110;2024-02-16T08:51:32;101732.97;;;12.77;53.39
76464;BME280;65301;46.666;20.110;2024-02-16T08:54:34;101730.91;;;12.88;51.50
76464;BME280;65301;46.666;20.110;2024-02-16T08:57:36;101731.28;;;12.30;51.74
76464;BME280;65301;46.666;20.110;2024-02-16T09:00:38;101733.41;;;12.47;51.42
76464;BME280;65301;46.666;20.110;2024-02-16T09:03:40;101732.44;;;12.43;49.81
76464;BME280;65301;46.666;20.110;2024-02-16T09:06:42;101732.66;;;12.28;51.49
76464;BME280;65301;46.666;20.110;2024-02-16T09:09:44;101738.47;;;12.81;50.20
76464;BME280;65301;46.666;20.110;2024-02-16T09:12:46;101725.84;;;12.91;50.02
76464;BME280;65301;46.666;20.110;2024-02-16T09:15:48;101730.47;;;12.99;49.42
76464;BME280;65301;46.666;20.110;2024-02-16T09:18:50;101729.75;;;12.94;51.54
76464;BME280;65301;46.666;20.110;2024-02-16T09:21:52;101723.53;;;12.52;50.49
76464;BME280;65301;46.666;20.110;2024-02-16T09:24:59;101732.63;;;12.65;51.45
76464;BME280;65301;46.666;20.110;2024-02-16T09:28:01;101729.09;;;12.69;52.43
76464;BME280;65301;46.666;20.110;2024-02-16T09:31:03;101736.19;;;12.74;51.21
76464;BME280;65301;46.666;20.110;2024-02-16T09:34:05;101734.84;;;12.90;51.12
76464;BME280;65301;46.666;20.110;2024-02-16T09:46:55;101736.84;;;14.79;46.05
76464;BME280;65301;46.666;20.110;2024-02-16T09:49:57;101735.28;;;14.55;46.71
76464;BME280;65301;46.666;20.110;2024-02-16T09:52:59;101739.00;;;14.32;47.48
76464;BME280;65301;46.666;20.110;2024-02-16T09:56:07;101734.84;;;14.40;46.31
76464;BME280;65301;46.666;20.110;2024-02-16T09:59:12;101743.75;;;14.57;45.98
76464;BME280;65301;46.666;20.110;2024-02-16T10:02:13;101742.03;;;15.14;45.56
76464;BME280;65301;46.666;20.110;2024-02-16T10:05:21;101735.91;;;15.92;42.46
76464;BME280;65301;46.666;20.110;2024-02-16T10:08:24;101726.19;;;16.82;40.65
76464;BME280;65301;46.666;20.110;2024-02-16T10:11:26;101730.31;;;17.17;38.99
76464;BME280;65301;46.666;20.110;2024-02-16T10:14:32;101723.25;;;17.51;38.38
76464;BME280;65301;46.666;20.110;2024-02-16T10:17:34;101718.09;;;17.83;37.84
76464;BME280;65301;46.666;20.110;2024-02-16T10:20:38;101717.59;;;18.23;37.21
76464;BME280;65301;46.666;20.110;2024-02-16T10:23:40;101716.19;;;18.46;36.34
76464;BME280;65301;46.666;20.110;2024-02-16T10:26:44;101709.56;;;18.43;36.22
76464;BME280;65301;46.666;20.110;2024-02-16T10:29:47;101706.47;;;18.74;35.51
76464;BME280;65301;46.666;20.110;2024-02-16T10:32:52;101707.75;;;19.13;35.30
76464;BME280;65301;46.666;20.110;2024-02-16T10:35:58;101698.13;;;19.00;36.39
76464;BME280;65301;46.666;20.110;2024-02-16T10:39:03;101700.63;;;19.53;34.09
76464;BME280;65301;46.666;20.110;2024-02-16T10:42:14;101700.16;;;19.75;33.04
76464;BME280;65301;46.666;20.110;2024-02-16T10:45:18;101688.69;;;19.51;34.27
76464;BME280;65301;46.666;20.110;2024-02-16T10:48:21;101680.94;;;18.89;34.97
76464;BME280;65301;46.666;20.110;2024-02-16T10:51:48;101676.75;;;18.22;35.35
76464;BME280;65301;46.666;20.110;2024-02-16T10:54:51;101666.34;;;19.10;34.30
76464;BME280;65301;46.666;20.110;2024-02-16T10:57:56;101663.47;;;19.52;34.14
76464;BME280;65301;46.666;20.110;2024-02-16T11:01:08;101668.63;;;19.84;32.91
76464;BME280;65301;46.666;20.110;2024-02-16T11:04:15;101663.72;;;20.26;31.84
76464;BME280;65301;46.666;20.110;2024-02-16T11:07:19;101661.75;;;20.54;31.23
76464;BME280;65301;46.666;20.110;2024-02-16T11:10:22;101659.25;;;20.46;30.39
76464;BME280;65301;46.666;20.110;2024-02-16T11:13:25;101655.09;;;20.21;31.17
76464;BME280;65301;46.666;20.110;2024-02-16T11:16:27;101652.22;;;20.14;30.57
76464;BME280;65301;46.666;20.110;2024-02-16T11:19:32;101654.50;;;20.55;29.60
76464;BME280;65301;46.666;20.110;2024-02-16T11:22:36;101656.03;;;20.13;30.43
76464;BME280;65301;46.666;20.110;2024-02-16T11:25:39;101643.47;;;19.61;31.70
76464;BME280;65301;46.666;20.110;2024-02-16T11:28:42;101639.88;;;19.97;31.99
76464;BME280;65301;46.666;20.110;2024-02-16T11:31:45;101645.50;;;20.63;30.27
76464;BME280;65301;46.666;20.110;2024-02-16T11:34:47;101638.75;;;21.16;29.52
76464;BME280;65301;46.666;20.110;2024-02-16T11:37:50;101639.44;;;20.50;30.65
76464;BME280;65301;46.666;20.110;2024-02-16T11:41:12;101635.16;;;21.62;28.65
76464;BME280;65301;46.666;20.110;2024-02-16T11:44:14;101632.03;;;22.37;27.77
76464;BME280;65301;46.666;20.110;2024-02-16T11:47:22;101621.78;;;22.91;26.53
76464;BME280;65301;46.666;20.110;2024-02-16T11:50:30;101630.47;;;22.81;26.72
76464;BME280;65301;46.666;20.110;2024-02-16T11:53:32;101630.84;;;23.92;25.22
76464;BME280;65301;46.666;20.110;2024-02-16T11:56:35;101625.00;;;24.60;24.00
76464;BME280;65301;46.666;20.110;2024-02-16T11:59:39;101619.28;;;24.24;23.89
76464;BME280;65301;46.666;20.110;2024-02-16T12:02:41;101615.16;;;24.34;24.81
76464;BME280;65301;46.666;20.110;2024-02-16T12:05:50;101610.47;;;24.27;24.15
76464;BME280;65301;46.666;20.110;2024-02-16T12:08:52;101606.56;;;22.12;26.61
76464;BME280;65301;46.666;20.110;2024-02-16T12:11:55;101605.63;;;23.17;26.11
76464;BME280;65301;46.666;20.110;2024-02-16T12:14:58;101604.81;;;22.00;26.77
76464;BME280;65301;46.666;20.110;2024-02-16T12:18:00;101608.31;;;23.44;25.33
76464;BME280;65301;46.666;20.110;2024-02-16T12:21:05;101597.50;;;24.07;24.90
76464;BME280;65301;46.666;20.110;2024-02-16T12:24:07;101603.63;;;23.67;24.01
76464;BME280;65301;46.666;20.110;2024-02-16T12:27:09;101595.78;;;23.02;24.99
76464;BME280;65301;46.666;20.110;2024-02-16T12:30:11;101599.25;;;23.88;24.92
76464;BME280;65301;46.666;20.110;2024-02-16T12:33:20;101592.03;;;24.40;24.39
76464;BME280;65301;46.666;20.110;2024-02-16T12:36:48;101593.03;;;25.23;22.93
76464;BME280;65301;46.666;20.110;2024-02-16T12:39:51;101582.09;;;24.95;22.76
76464;BME280;65301;46.666;20.110;2024-02-16T12:43:04;101585.34;;;25.29;22.35
76464;BME280;65301;46.666;20.110;2024-02-16T12:47:10;101573.53;;;25.61;22.03
76464;BME280;65301;46.666;20.110;2024-02-16T12:50:12;101575.59;;;26.10;21.63
76464;BME280;65301;46.666;20.110;2024-02-16T12:53:14;101572.91;;;26.21;21.40
76464;BME280;65301;46.666;20.110;2024-02-16T12:56:15;101570.31;;;25.35;21.81
76464;BME280;65301;46.666;20.110;2024-02-16T12:59:17;101569.50;;;25.24;22.99
76464;BME280;65301;46.666;20.110;2024-02-16T13:02:19;101563.59;;;25.07;22.81
76464;BME280;65301;46.666;20.110;2024-02-16T13:05:21;101559.00;;;25.15;22.51
76464;BME280;65301;46.666;20.110;2024-02-16T13:08:23;101554.63;;;25.65;22.12
76464;BME280;65301;46.666;20.110;2024-02-16T13:11:25;101550.97;;;25.29;22.79
76464;BME280;65301;46.666;20.110;2024-02-16T13:14:27;101545.97;;;25.31;22.86
76464;BME280;65301;46.666;20.110;2024-02-16T13:17:29;101551.94;;;25.82;21.28
76464;BME280;65301;46.666;20.110;2024-02-16T13:20:33;101548.09;;;25.83;21.19
76464;BME280;65301;46.666;20.110;2024-02-16T13:23:37;101549.63;;;25.81;21.41
76464;BME280;65301;46.666;20.110;2024-02-16T13:26:38;101542.66;;;25.94;20.87
76464;BME280;65301;46.666;20.110;2024-02-16T13:29:40;101547.81;;;25.09;22.75
76464;BME280;65301;46.666;20.110;2024-02-16T13:32:42;101550.53;;;25.20;21.82
76464;BME280;65301;46.666;20.110;2024-02-16T13:35:44;101548.16;;;25.04;22.01
76464;BME280;65301;46.666;20.110;2024-02-16T13:38:53;101552.13;;;24.67;23.22
76464;BME280;65301;46.666;20.110;2024-02-16T13:42:20;101549.31;;;24.52;23.20
76464;BME280;65301;46.666;20.110;2024-02-16T13:45:22;101549.41;;;24.16;22.73
76464;BME280;65301;46.666;20.110;2024-02-16T13:48:27;101550.75;;;23.96;22.73
76464;BME280;65301;46.666;20.110;2024-02-16T13:51:30;101548.41;;;23.94;22.56
76464;BME280;65301;46.666;20.110;2024-02-16T13:54:32;101539.94;;;23.59;22.83
76464;BME280;65301;46.666;20.110;2024-02-16T13:57:34;101536.34;;;23.18;23.18
76464;BME280;65301;46.666;20.110;2024-02-16T14:00:37;101536.06;;;22.71;24.44
76464;BME280;65301;46.666;20.110;2024-02-16T14:03:39;101538.53;;;22.34;25.33
76464;BME280;65301;46.666;20.110;2024-02-16T14:06:41;101538.03;;;21.45;25.61
76464;BME280;65301;46.666;20.110;2024-02-16T14:09:43;101537.41;;;20.19;26.72
76464;BME280;65301;46.666;20.110;2024-02-16T14:12:45;101533.03;;;20.27;27.41
76464;BME280;65301;46.666;20.110;2024-02-16T14:15:48;101532.00;;;19.88;28.08
76464;BME280;65301;46.666;20.110;2024-02-16T14:18:50;101536.84;;;19.55;27.90
76464;BME280;65301;46.666;20.110;2024-02-16T14:21:54;101536.13;;;19.18;28.70
76464;BME280;65301;46.666;20.110;2024-02-16T14:24:56;101528.00;;;18.42;29.73
76464;BME280;65301;46.666;20.110;2024-02-16T14:27:58;101529.81;;;17.93;32.09
76464;BME280;65301;46.666;20.110;2024-02-16T14:31:00;101528.81;;;17.44;33.63
76464;BME280;65301;46.666;20.110;2024-02-16T14:34:02;101522.56;;;16.90;34.06
76464;BME280;65301;46.666;20.110;2024-02-16T14:37:04;101523.34;;;16.15;35.61
76464;BME280;65301;46.666;20.110;2024-02-16T14:40:06;101515.72;;;15.79;36.13
76464;BME280;65301;46.666;20.110;2024-02-16T14:43:11;101512.63;;;15.52;37.48
76464;BME280;65301;46.666;20.110;2024-02-16T14:46:13;101517.44;;;15.41;37.77
76464;BME280;65301;46.666;20.110;2024-02-16T14:49:17;101504.94;;;15.33;37.46
76464;BME280;65301;46.666;20.110;2024-02-16T14:52:23;101518.25;;;15.42;38.68
76464;BME280;65301;46.666;20.110;2024-02-16T14:55:25;101519.81;;;15.34;37.60
76464;BME280;65301;46.666;20.110;2024-02-16T14:58:27;101516.31;;;15.16;37.90
76464;BME280;65301;46.666;20.110;2024-02-16T15:01:29;101518.09;;;15.21;38.22
76464;BME280;65301;46.666;20.110;2024-02-16T15:04:30;101516.31;;;15.16;38.70
76464;BME280;65301;46.666;20.110;2024-02-16T15:07:33;101521.28;;;14.92;39.36
76464;BME280;65301;46.666;20.110;2024-02-16T15:10:35;101522.69;;;14.81;39.52
76464;BME280;65301;46.666;20.110;2024-02-16T15:13:36;101523.59;;;14.68;40.07
76464;BME280;65301;46.666;20.110;2024-02-16T15:16:39;101518.03;;;14.47;40.64
76464;BME280;65301;46.666;20.110;2024-02-16T15:19:41;101520.94;;;14.37;41.27
76464;BME280;65301;46.666;20.110;2024-02-16T15:22:43;101522.75;;;14.28;42.36
76464;BME280;65301;46.666;20.110;2024-02-16T15:25:56;101520.94;;;14.07;42.90
76464;BME280;65301;46.666;20.110;2024-02-16T15:28:57;101525.81;;;13.91;42.17
76464;BME280;65301;46.666;20.110;2024-02-16T15:31:59;101528.47;;;13.91;40.54
76464;BME280;65301;46.666;20.110;2024-02-16T15:35:01;101529.09;;;13.88;41.20
76464;BME280;65301;46.666;20.110;2024-02-16T15:38:04;101533.06;;;13.77;41.42
76464;BME280;65301;46.666;20.110;2024-02-16T15:41:06;101531.91;;;13.69;41.21
76464;BME280;65301;46.666;20.110;2024-02-16T15:44:08;101537.16;;;13.61;42.63
76464;BME280;65301;46.666;20.110;2024-02-16T15:47:12;101530.47;;;13.27;44.73
76464;BME280;65301;46.666;20.110;2024-02-16T15:50:13;101535.56;;;13.38;43.83
76464;BME280;65301;46.666;20.110;2024-02-16T15:53:15;101535.56;;;13.38;45.94
76464;BME280;65301;46.666;20.110;2024-02-16T15:56:17;101534.22;;;13.26;43.46
76464;BME280;65301;46.666;20.110;2024-02-16T15:59:19;101536.31;;;13.16;46.44
76464;BME280;65301;46.666;20.110;2024-02-16T16:02:21;101537.66;;;12.86;48.41
76464;BME280;65301;46.666;20.110;2024-02-16T16:05:22;101534.41;;;12.76;46.57
76464;BME280;65301;46.666;20.110;2024-02-16T16:08:24;101532.97;;;12.69;45.50
76464;BME280;65301;46.666;20.110;2024-02-16T16:11:26;101537.28;;;12.65;45.02
76464;BME280;65301;46.666;20.110;2024-02-16T16:14:28;101546.34;;;12.32;50.72